createdAt,value
2019-03-18T00:00:32.385Z,91.40
2019-03-18T00:02:59.924Z,91.60
2019-03-18T00:05:27.372Z,91.10
2019-03-18T00:07:54.913Z,91.00
2019-03-18T00:10:22.377Z,91.20
2019-03-18T00:12:52.027Z,90.90
2019-03-18T00:15:19.044Z,90.80
2019-03-18T00:17:46.502Z,90.90
2019-03-18T00:20:13.937Z,90.70
2019-03-18T00:22:41.464Z,90.80
2019-03-18T00:25:09.097Z,91.00
2019-03-18T00:27:36.525Z,91.00
2019-03-18T00:30:05.369Z,90.90
2019-03-18T00:32:32.805Z,91.20
2019-03-18T00:35:00.243Z,91.20
2019-03-18T00:37:27.660Z,91.50
2019-03-18T00:39:55.120Z,91.40
2019-03-18T00:42:22.545Z,91.10
2019-03-18T00:44:49.984Z,91.50
2019-03-18T00:47:17.530Z,91.30
2019-03-18T00:49:44.969Z,91.20
2019-03-18T00:52:12.424Z,91.00
2019-03-18T00:54:39.863Z,91.10
2019-03-18T00:57:07.288Z,91.20
2019-03-18T00:59:34.743Z,91.10
2019-03-18T01:02:02.476Z,91.20
2019-03-18T01:04:29.915Z,91.20
2019-03-18T01:06:57.373Z,91.40
2019-03-18T01:09:24.798Z,91.50
2019-03-18T01:11:52.272Z,91.40
2019-03-18T01:14:19.757Z,91.60
2019-03-18T01:16:47.189Z,92.20
2019-03-18T01:19:14.646Z,91.80
2019-03-18T01:21:42.061Z,92.20
2019-03-18T01:24:09.408Z,91.70
2019-03-18T01:26:36.851Z,91.80
2019-03-18T01:29:04.409Z,91.90
2019-03-18T01:31:31.741Z,91.70
2019-03-18T01:33:59.207Z,91.80
2019-03-18T01:36:26.655Z,92.00
2019-03-18T01:38:54.129Z,92.00
2019-03-18T01:41:21.581Z,92.20
2019-03-18T01:43:48.934Z,92.00
2019-03-18T01:46:16.376Z,92.10
2019-03-18T01:48:43.809Z,92.00
2019-03-18T01:51:11.281Z,91.90
2019-03-18T01:53:38.700Z,92.00
2019-03-18T01:56:06.145Z,92.10
2019-03-18T01:58:33.593Z,92.20
2019-03-18T02:01:01.027Z,92.10
2019-03-18T02:03:28.479Z,92.10
2019-03-18T02:05:55.952Z,92.10
2019-03-18T02:08:23.397Z,92.30
2019-03-18T02:10:50.843Z,92.40
2019-03-18T02:13:18.324Z,92.30
2019-03-18T02:15:53.144Z,92.20
2019-03-18T02:18:15.016Z,92.20
2019-03-18T02:20:42.462Z,92.30
2019-03-18T02:23:09.801Z,92.20
2019-03-18T02:25:37.260Z,92.40
2019-03-18T02:28:04.696Z,92.40
2019-03-18T02:30:32.141Z,92.30
2019-03-18T02:32:59.612Z,92.40
2019-03-18T02:35:27.167Z,92.20
2019-03-18T02:37:54.597Z,92.20
2019-03-18T02:40:22.061Z,92.40
2019-03-18T02:42:49.556Z,92.30
2019-03-18T02:45:16.981Z,92.70
2019-03-18T02:47:44.440Z,92.30
2019-03-18T02:50:11.919Z,92.40
2019-03-18T02:52:39.311Z,92.20
2019-03-18T02:55:07.081Z,92.30
2019-03-18T02:57:34.505Z,92.20
2019-03-18T03:00:01.933Z,92.00
2019-03-18T03:02:29.391Z,92.30
2019-03-18T03:04:56.832Z,92.30
2019-03-18T03:07:24.262Z,92.30
2019-03-18T03:09:51.829Z,92.30
2019-03-18T03:12:19.324Z,92.20
2019-03-18T03:14:46.764Z,92.00
2019-03-18T03:17:14.213Z,92.20
2019-03-18T03:19:41.548Z,92.50
2019-03-18T03:22:08.969Z,92.40
2019-03-18T03:24:36.403Z,92.40
2019-03-18T03:27:03.842Z,92.50
2019-03-18T03:29:31.264Z,92.50
2019-03-18T03:31:58.766Z,92.40
2019-03-18T03:34:26.210Z,92.40
2019-03-18T03:36:53.644Z,93.10
2019-03-18T03:39:21.090Z,92.80
2019-03-18T03:41:48.577Z,92.50
2019-03-18T03:44:16.029Z,92.60
2019-03-18T03:46:44.214Z,92.70
2019-03-18T03:49:11.744Z,92.70
2019-03-18T03:51:39.174Z,92.90
2019-03-18T03:54:06.632Z,92.80
2019-03-18T03:56:34.089Z,93.00
2019-03-18T03:59:01.533Z,93.00
2019-03-18T04:01:29.570Z,92.90
2019-03-18T04:03:57.498Z,93.10
2019-03-18T04:06:24.941Z,93.20
2019-03-18T04:08:52.390Z,93.10
2019-03-18T04:11:19.842Z,93.20
2019-03-18T04:13:47.380Z,93.10
2019-03-18T04:16:14.952Z,93.10
2019-03-18T04:18:42.387Z,92.90
2019-03-18T04:21:09.813Z,93.00
2019-03-18T04:23:37.277Z,93.00
2019-03-18T04:26:04.720Z,92.90
2019-03-18T04:28:32.145Z,93.00
2019-03-18T04:30:59.583Z,93.10
2019-03-18T04:33:27.035Z,92.80
2019-03-18T04:35:54.610Z,92.90
2019-03-18T04:38:22.053Z,92.80
2019-03-18T04:40:49.694Z,92.50
2019-03-18T04:43:17.159Z,92.60
2019-03-18T04:45:44.581Z,92.90
2019-03-18T04:48:12.035Z,92.40
2019-03-18T04:50:39.460Z,92.60
2019-03-18T04:53:06.909Z,92.60
2019-03-18T04:55:34.354Z,92.40
2019-03-18T04:58:01.800Z,92.40
2019-03-18T05:00:29.231Z,92.60
2019-03-18T05:02:56.691Z,92.60
2019-03-18T05:05:24.325Z,92.50
2019-03-18T05:07:51.759Z,92.70
2019-03-18T05:10:19.322Z,92.90
2019-03-18T05:12:46.750Z,92.90
2019-03-18T05:15:14.173Z,93.30
2019-03-18T05:17:41.641Z,93.20
2019-03-18T05:20:09.181Z,93.40
2019-03-18T05:22:36.617Z,93.30
2019-03-18T05:25:04.308Z,93.10
2019-03-18T05:27:31.745Z,93.10
2019-03-18T05:29:59.181Z,92.90
2019-03-18T05:32:26.666Z,92.80
2019-03-18T05:34:54.135Z,93.00
2019-03-18T05:37:21.578Z,92.90
2019-03-18T05:39:49.034Z,93.00
2019-03-18T05:42:16.485Z,93.10
2019-03-18T05:44:43.823Z,93.10
2019-03-18T05:47:11.247Z,93.10
2019-03-18T05:49:38.707Z,93.10
2019-03-18T05:52:06.135Z,93.30
2019-03-18T05:54:35.692Z,93.40
2019-03-18T05:57:03.225Z,93.50
2019-03-18T05:59:30.668Z,93.60
2019-03-18T06:01:58.109Z,93.60
2019-03-18T06:04:25.570Z,94.10
2019-03-18T06:06:53.032Z,93.70
2019-03-18T06:09:20.457Z,93.60
2019-03-18T06:11:47.821Z,93.70
2019-03-18T06:14:15.272Z,93.60
2019-03-18T06:16:42.709Z,93.60
2019-03-18T06:19:10.137Z,93.70
2019-03-18T06:21:37.592Z,93.80
2019-03-18T06:24:06.411Z,93.60
2019-03-18T06:26:34.143Z,93.80
2019-03-18T06:29:01.600Z,93.90
2019-03-18T06:31:29.100Z,93.90
2019-03-18T06:33:56.597Z,94.00
2019-03-18T06:36:24.054Z,94.00
2019-03-18T06:38:51.503Z,94.10
2019-03-18T06:41:19.087Z,94.40
2019-03-18T06:43:46.551Z,94.10
2019-03-18T06:46:14.005Z,94.20
2019-03-18T06:48:41.577Z,94.10
2019-03-18T06:51:09.068Z,94.20
2019-03-18T06:53:36.557Z,94.10
2019-03-18T06:56:04.041Z,94.10
2019-03-18T06:58:31.480Z,94.50
2019-03-18T07:00:59.030Z,94.10
2019-03-18T07:03:26.447Z,93.90
2019-03-18T07:05:53.963Z,93.80
2019-03-18T07:08:21.461Z,93.80
2019-03-18T07:10:48.922Z,93.70
2019-03-18T07:13:16.448Z,93.70
2019-03-18T07:15:43.908Z,93.70
2019-03-18T07:18:18.162Z,93.60
2019-03-18T07:20:40.609Z,93.50
2019-03-18T07:23:08.084Z,93.40
2019-03-18T07:25:35.534Z,93.20
2019-03-18T07:28:02.968Z,93.40
2019-03-18T07:30:30.814Z,93.00
2019-03-18T07:32:58.269Z,92.80
2019-03-18T07:35:25.903Z,92.60
2019-03-18T07:37:53.332Z,92.70
2019-03-18T07:40:20.763Z,92.80
2019-03-18T07:42:48.256Z,92.50
2019-03-18T07:45:16.326Z,92.40
2019-03-18T07:47:43.992Z,92.40
2019-03-18T07:50:11.476Z,91.90
2019-03-18T07:52:38.901Z,92.20
2019-03-18T07:55:06.374Z,91.90
2019-03-18T07:57:33.834Z,91.90
2019-03-18T08:00:01.260Z,91.80
2019-03-18T08:02:28.692Z,91.70
2019-03-18T08:04:56.142Z,91.50
2019-03-18T08:07:23.570Z,91.40
2019-03-18T08:09:51.012Z,90.90
2019-03-18T08:12:18.563Z,91.10
2019-03-18T08:14:46.009Z,91.10
2019-03-18T08:17:13.444Z,91.10
2019-03-18T08:19:40.877Z,90.60
2019-03-18T08:22:08.369Z,90.40
2019-03-18T08:24:35.789Z,90.10
2019-03-18T08:27:03.421Z,88.30
2019-03-18T08:29:30.984Z,88.10
2019-03-18T08:31:58.449Z,87.70
2019-03-18T08:34:25.881Z,87.80
2019-03-18T08:36:53.336Z,86.90
2019-03-18T08:39:20.777Z,85.20
2019-03-18T08:41:48.244Z,86.00
2019-03-18T08:44:15.688Z,84.40
2019-03-18T08:46:43.121Z,84.30
2019-03-18T08:49:10.732Z,85.70
2019-03-18T08:51:38.163Z,86.10
2019-03-18T08:54:05.613Z,86.10
2019-03-18T08:56:33.049Z,86.30
2019-03-18T08:59:00.476Z,84.70
2019-03-18T09:01:28.038Z,85.80
2019-03-18T09:03:55.500Z,83.40
2019-03-18T09:06:22.947Z,85.30
2019-03-18T09:08:50.421Z,85.60
2019-03-18T09:11:17.959Z,83.60
2019-03-18T09:13:45.389Z,84.80
2019-03-18T09:16:12.972Z,81.70
2019-03-18T09:18:40.414Z,79.90
2019-03-18T09:21:07.852Z,80.70
2019-03-18T09:23:36.148Z,80.80
2019-03-18T09:26:03.962Z,79.90
2019-03-18T09:28:32.110Z,79.10
2019-03-18T09:30:59.544Z,78.20
2019-03-18T09:33:27.000Z,77.40
2019-03-18T09:35:54.439Z,77.50
2019-03-18T09:38:21.865Z,78.30
2019-03-18T09:40:49.517Z,78.60
2019-03-18T09:43:16.944Z,79.70
2019-03-18T09:45:44.393Z,78.90
2019-03-18T09:48:11.837Z,79.90
2019-03-18T09:50:39.296Z,78.50
2019-03-18T09:53:06.764Z,80.60
2019-03-18T09:55:34.210Z,80.20
2019-03-18T09:58:01.645Z,80.40
2019-03-18T10:00:29.093Z,79.40
2019-03-18T10:02:56.528Z,78.30
2019-03-18T10:05:23.972Z,78.60
2019-03-18T10:07:51.593Z,76.20
2019-03-18T10:10:19.045Z,77.10
2019-03-18T10:12:46.483Z,77.50
2019-03-18T10:15:13.940Z,77.10
2019-03-18T10:17:41.379Z,75.90
2019-03-18T10:20:09.029Z,76.40
2019-03-18T10:22:36.484Z,74.00
2019-03-18T10:25:04.571Z,74.80
2019-03-18T10:27:32.095Z,74.50
2019-03-18T10:29:59.489Z,74.10
2019-03-18T10:32:26.945Z,75.00
2019-03-18T10:34:54.384Z,73.70
2019-03-18T10:37:21.825Z,73.80
2019-03-18T10:39:49.461Z,74.00
2019-03-18T10:42:16.894Z,73.50
2019-03-18T10:44:44.307Z,74.90
2019-03-18T10:47:11.810Z,73.90
2019-03-18T10:49:46.178Z,73.40
2019-03-18T10:52:08.481Z,71.40
2019-03-18T10:54:35.908Z,72.60
2019-03-18T10:57:03.361Z,73.50
2019-03-18T10:59:30.806Z,72.50
2019-03-18T11:01:58.344Z,73.70
2019-03-18T11:04:25.791Z,68.20
2019-03-18T11:06:53.217Z,69.70
2019-03-18T11:09:20.640Z,67.80
2019-03-18T11:11:48.169Z,65.10
2019-03-18T11:14:15.592Z,66.50
2019-03-18T11:16:43.023Z,66.40
2019-03-18T11:19:10.475Z,65.10
2019-03-18T11:21:37.908Z,65.10
2019-03-18T11:24:05.373Z,66.90
2019-03-18T11:26:32.793Z,69.50
2019-03-18T11:29:00.231Z,69.70
2019-03-18T11:31:27.689Z,70.00
2019-03-18T11:33:55.138Z,70.80
2019-03-18T11:36:22.610Z,71.80
2019-03-18T11:38:50.051Z,70.90
2019-03-18T11:41:17.737Z,70.90
2019-03-18T11:43:45.191Z,70.70
2019-03-18T11:46:12.749Z,71.60
2019-03-18T11:48:40.172Z,70.60
2019-03-18T11:51:07.601Z,71.70
2019-03-18T11:53:35.048Z,72.80
2019-03-18T11:56:02.530Z,75.80
2019-03-18T11:58:29.972Z,75.20
2019-03-18T12:00:57.410Z,72.10
2019-03-18T12:03:24.857Z,73.00
2019-03-18T12:05:52.389Z,73.60
2019-03-18T12:08:19.825Z,72.40
2019-03-18T12:10:47.336Z,72.10
2019-03-18T12:13:14.707Z,72.50
2019-03-18T12:15:42.154Z,73.50
2019-03-18T12:18:09.596Z,73.60
2019-03-18T12:20:37.128Z,73.90
2019-03-18T12:23:04.565Z,73.70
2019-03-18T12:25:33.753Z,71.90
2019-03-18T12:28:01.553Z,72.10
2019-03-18T12:30:28.984Z,72.20
2019-03-18T12:32:56.432Z,73.40
2019-03-18T12:35:23.869Z,73.10
2019-03-18T12:37:51.334Z,72.60
2019-03-18T12:40:18.972Z,70.90
2019-03-18T12:42:46.625Z,69.40
2019-03-18T12:45:14.087Z,68.40
2019-03-18T12:47:41.516Z,66.30
2019-03-18T12:50:11.963Z,61.30
2019-03-18T12:52:39.425Z,60.00
2019-03-18T12:55:07.144Z,60.30
2019-03-18T12:57:34.589Z,57.90
2019-03-18T13:00:02.057Z,60.20
2019-03-18T13:02:29.485Z,57.20
2019-03-18T13:04:56.928Z,57.80
2019-03-18T13:07:24.397Z,58.10
2019-03-18T13:09:51.837Z,56.90
2019-03-18T13:12:19.461Z,58.40
2019-03-18T13:14:47.020Z,58.90
2019-03-18T13:17:14.477Z,61.40
2019-03-18T13:19:41.925Z,59.80
2019-03-18T13:22:09.369Z,61.40
2019-03-18T13:24:36.808Z,59.80
2019-03-18T13:27:04.283Z,59.70
2019-03-18T13:29:32.245Z,60.20
2019-03-18T13:31:59.700Z,59.00
2019-03-18T13:34:27.131Z,57.10
2019-03-18T13:36:54.489Z,56.80
2019-03-18T13:39:23.056Z,58.20
2019-03-18T13:41:50.508Z,58.50
2019-03-18T13:44:17.971Z,58.60
2019-03-18T13:46:45.520Z,57.70
2019-03-18T13:49:15.813Z,57.50
2019-03-18T13:51:42.216Z,57.30
2019-03-18T13:54:09.644Z,59.10
2019-03-18T13:56:37.110Z,59.20
2019-03-18T13:59:04.561Z,57.00
2019-03-18T14:01:32.199Z,57.30
2019-03-18T14:03:59.656Z,56.70
2019-03-18T14:06:27.092Z,57.60
2019-03-18T14:08:54.529Z,57.40
2019-03-18T14:11:21.990Z,56.90
2019-03-18T14:13:49.574Z,58.10
2019-03-18T14:16:17.036Z,59.10
2019-03-18T14:18:44.489Z,59.20
2019-03-18T14:21:11.919Z,59.10
2019-03-18T14:23:39.360Z,58.00
2019-03-18T14:26:06.828Z,60.20
2019-03-18T14:28:34.260Z,58.40
2019-03-18T14:31:01.750Z,56.70
2019-03-18T14:33:29.169Z,56.80
2019-03-18T14:35:56.616Z,55.60
2019-03-18T14:38:24.052Z,56.20
2019-03-18T14:40:51.492Z,56.30
2019-03-18T14:43:19.024Z,56.00
2019-03-18T14:45:46.456Z,55.10
2019-03-18T14:48:13.926Z,55.10
2019-03-18T14:50:41.366Z,55.50
2019-03-18T14:53:08.995Z,56.70
2019-03-18T14:55:36.548Z,57.50
2019-03-18T14:58:03.970Z,56.60
2019-03-18T15:00:31.425Z,56.10
2019-03-18T15:02:58.891Z,55.90
2019-03-18T15:05:26.332Z,57.10
2019-03-18T15:07:53.791Z,57.70
2019-03-18T15:10:21.249Z,55.60
2019-03-18T15:12:48.666Z,56.10
2019-03-18T15:15:16.617Z,55.80
2019-03-18T15:17:44.056Z,55.50
2019-03-18T15:20:12.456Z,55.50
2019-03-18T15:22:40.184Z,54.20
2019-03-18T15:25:10.653Z,53.00
2019-03-18T15:27:38.080Z,53.30
2019-03-18T15:30:07.741Z,53.10
2019-03-18T15:32:35.176Z,52.90
2019-03-18T15:35:02.670Z,54.20
2019-03-18T15:37:30.151Z,54.30
2019-03-18T15:39:57.589Z,54.30
2019-03-18T15:42:25.036Z,55.50
2019-03-18T15:44:52.504Z,56.40
2019-03-18T15:47:19.937Z,57.20
2019-03-18T15:49:47.381Z,57.70
2019-03-18T15:52:14.837Z,57.60
2019-03-18T15:54:53.469Z,57.30
2019-03-18T15:57:11.510Z,57.40
2019-03-18T15:59:39.003Z,57.90
2019-03-18T16:02:06.601Z,57.40
2019-03-18T16:04:34.040Z,56.70
2019-03-18T16:07:01.538Z,57.30
2019-03-18T16:09:29.002Z,57.40
2019-03-18T16:11:56.469Z,57.10
2019-03-18T16:14:23.941Z,58.10
2019-03-18T16:17:01.496Z,57.60
2019-03-18T16:19:20.580Z,58.80
2019-03-18T16:21:48.016Z,58.90
2019-03-18T16:24:17.128Z,59.50
2019-03-18T16:26:44.718Z,59.80
2019-03-18T16:29:12.149Z,59.70
2019-03-18T16:31:39.600Z,60.60
2019-03-18T16:34:07.100Z,60.80
2019-03-18T16:36:34.464Z,61.50
2019-03-18T16:39:01.916Z,62.20
2019-03-18T16:41:29.331Z,61.50
2019-03-18T16:43:56.764Z,61.20
2019-03-18T16:46:24.194Z,61.30
2019-03-18T16:48:51.680Z,61.10
2019-03-18T16:51:19.199Z,61.30
2019-03-18T16:53:46.642Z,61.50
2019-03-18T16:56:14.315Z,61.30
2019-03-18T16:58:41.672Z,62.20
2019-03-18T17:01:09.006Z,63.20
2019-03-18T17:03:36.454Z,63.50
2019-03-18T17:06:03.927Z,61.80
2019-03-18T17:08:31.356Z,61.60
2019-03-18T17:10:58.823Z,62.40
2019-03-18T17:13:26.263Z,63.00
2019-03-18T17:15:53.699Z,63.50
2019-03-18T17:18:21.181Z,64.80
2019-03-18T17:20:48.639Z,64.80
2019-03-18T17:23:16.074Z,65.20
2019-03-18T17:25:43.532Z,65.20
2019-03-18T17:28:10.977Z,66.10
2019-03-18T17:30:38.423Z,65.70
2019-03-18T17:33:05.921Z,66.40
2019-03-18T17:35:33.429Z,66.20
2019-03-18T17:38:00.909Z,67.00
2019-03-18T17:40:28.377Z,65.90
2019-03-18T17:42:55.829Z,66.50
2019-03-18T17:45:23.256Z,66.50
2019-03-18T17:47:50.740Z,67.00
2019-03-18T17:50:18.725Z,67.10
2019-03-18T17:52:46.166Z,67.30
2019-03-18T17:55:13.600Z,67.60
2019-03-18T17:57:41.049Z,68.90
2019-03-18T18:00:11.324Z,70.00
2019-03-18T18:02:38.748Z,71.10
2019-03-18T18:05:06.172Z,70.70
2019-03-18T18:07:33.626Z,72.50
2019-03-18T18:10:01.081Z,71.40
2019-03-18T18:12:28.516Z,72.60
2019-03-18T18:14:55.960Z,72.50
2019-03-18T18:17:23.401Z,73.40
2019-03-18T18:19:50.864Z,74.30
2019-03-18T18:22:18.346Z,75.50
2019-03-18T18:24:45.820Z,73.60
2019-03-18T18:27:13.259Z,72.80
2019-03-18T18:29:40.696Z,73.50
2019-03-18T18:32:08.174Z,73.00
2019-03-18T18:34:35.587Z,73.60
2019-03-18T18:37:02.976Z,73.90
2019-03-18T18:39:30.432Z,74.00
2019-03-18T18:41:57.868Z,74.20
2019-03-18T18:44:25.293Z,73.40
2019-03-18T18:46:52.729Z,73.60
2019-03-18T18:49:20.088Z,73.90
2019-03-18T18:51:47.574Z,73.50
2019-03-18T18:54:14.945Z,75.00
2019-03-18T18:56:42.420Z,74.40
2019-03-18T18:59:10.062Z,75.30
2019-03-18T19:01:37.654Z,75.70
2019-03-18T19:04:05.101Z,76.20
2019-03-18T19:06:32.556Z,77.20
2019-03-18T19:09:00.043Z,77.60
2019-03-18T19:11:27.418Z,77.20
2019-03-18T19:13:54.862Z,77.30
2019-03-18T19:16:22.329Z,77.10
2019-03-18T19:18:49.774Z,77.70
2019-03-18T19:21:17.222Z,78.10
2019-03-18T19:23:44.673Z,79.10
2019-03-18T19:26:12.138Z,79.20
2019-03-18T19:28:39.575Z,79.50
2019-03-18T19:31:07.156Z,79.40
2019-03-18T19:33:34.587Z,80.00
2019-03-18T19:36:02.213Z,79.90
2019-03-18T19:38:29.569Z,80.80
2019-03-18T19:40:56.894Z,80.30
2019-03-18T19:43:24.333Z,80.30
2019-03-18T19:45:51.915Z,81.20
2019-03-18T19:48:19.453Z,81.00
2019-03-18T19:50:46.909Z,81.40
2019-03-18T19:53:14.349Z,81.40
2019-03-18T19:55:41.775Z,80.80
2019-03-18T19:58:09.116Z,81.50
2019-03-18T20:00:36.564Z,81.50
2019-03-18T20:03:04.541Z,81.40
2019-03-18T20:05:31.982Z,81.90
2019-03-18T20:07:59.498Z,82.10
2019-03-18T20:10:26.972Z,82.40
2019-03-18T20:12:54.417Z,82.50
2019-03-18T20:15:22.041Z,82.10
2019-03-18T20:17:49.789Z,82.80
2019-03-18T20:20:17.223Z,83.20
2019-03-18T20:22:44.685Z,83.30
2019-03-18T20:25:12.137Z,83.10
2019-03-18T20:27:39.599Z,83.10
2019-03-18T20:30:09.532Z,83.20
2019-03-18T20:32:36.974Z,83.30
2019-03-18T20:35:05.771Z,83.60
2019-03-18T20:37:33.312Z,83.60
2019-03-18T20:40:00.772Z,84.00
2019-03-18T20:42:28.237Z,83.70
2019-03-18T20:44:55.812Z,84.50
2019-03-18T20:47:23.248Z,83.70
2019-03-18T20:49:50.733Z,84.00
2019-03-18T20:52:18.235Z,85.00
2019-03-18T20:54:45.699Z,84.40
2019-03-18T20:57:13.667Z,85.30
2019-03-18T20:59:41.140Z,85.40
2019-03-18T21:02:08.608Z,85.70
2019-03-18T21:04:36.066Z,85.70
2019-03-18T21:07:03.540Z,85.90
2019-03-18T21:09:31.012Z,85.80
2019-03-18T21:14:25.168Z,85.80
2019-03-18T21:16:52.632Z,85.30
2019-03-18T21:19:20.144Z,85.30
2019-03-18T21:21:47.620Z,85.20
2019-03-18T21:24:22.970Z,84.30
2019-03-18T21:26:45.526Z,84.50
2019-03-18T21:29:13.693Z,85.10
2019-03-18T21:31:41.135Z,85.00
2019-03-18T21:34:08.709Z,85.80
2019-03-18T21:36:38.071Z,86.50
2019-03-18T21:39:08.148Z,86.70
2019-03-18T21:41:35.648Z,86.50
2019-03-18T21:44:03.165Z,86.30
2019-03-18T21:46:30.477Z,85.80
2019-03-18T21:48:57.910Z,85.70
2019-03-18T21:51:25.316Z,86.60
2019-03-18T21:53:52.622Z,86.40
2019-03-18T21:56:19.938Z,86.00
2019-03-18T21:58:47.213Z,86.50
2019-03-18T22:01:14.658Z,86.40
2019-03-18T22:03:42.193Z,86.30
2019-03-18T22:06:09.445Z,86.70
2019-03-18T22:08:36.931Z,87.30
2019-03-18T22:11:04.448Z,87.40
2019-03-18T22:13:31.897Z,87.40
2019-03-18T22:15:59.332Z,87.20
2019-03-18T22:18:26.802Z,87.30
2019-03-18T22:20:54.232Z,87.30
2019-03-18T22:23:21.692Z,86.80
2019-03-18T22:25:49.208Z,87.40
2019-03-18T22:28:16.637Z,87.40
2019-03-18T22:30:44.061Z,87.40
2019-03-18T22:33:11.652Z,88.10
2019-03-18T22:35:39.094Z,88.50
2019-03-18T22:38:06.534Z,88.90
2019-03-18T22:40:33.997Z,88.80
2019-03-18T22:43:01.456Z,88.40
2019-03-18T22:45:28.913Z,88.80
2019-03-18T22:47:56.493Z,88.00
2019-03-18T22:50:23.860Z,88.20
2019-03-18T22:52:51.310Z,88.50
2019-03-18T22:55:18.850Z,88.30
2019-03-18T22:57:46.285Z,88.80
2019-03-18T23:00:28.965Z,88.90
2019-03-18T23:02:56.405Z,88.90
2019-03-18T23:05:23.852Z,88.40
2019-03-18T23:07:51.291Z,88.70
2019-03-18T23:10:18.740Z,89.20
2019-03-18T23:12:46.205Z,88.90
2019-03-18T23:15:13.879Z,90.20
2019-03-18T23:17:41.600Z,90.20
2019-03-18T23:20:09.073Z,90.10
2019-03-18T23:22:36.501Z,89.70
2019-03-18T23:25:07.778Z,89.10
2019-03-18T23:27:34.022Z,89.60
2019-03-18T23:30:01.615Z,89.50
2019-03-18T23:32:29.060Z,89.60
2019-03-18T23:34:56.604Z,89.30
2019-03-18T23:37:24.049Z,89.20
2019-03-18T23:39:52.036Z,90.00
2019-03-18T23:42:19.772Z,89.80
2019-03-18T23:44:47.224Z,89.80
2019-03-18T23:47:14.676Z,90.20
2019-03-18T23:49:42.136Z,90.10
2019-03-18T23:52:09.625Z,90.40
2019-03-18T23:54:37.189Z,90.80
2019-03-18T23:57:04.639Z,90.90
2019-03-18T23:59:32.092Z,90.50
